logo dgac
Viernes 20 de Julio del 2018
Buscar por aerodromo o helipuerto
Ingrese nombre de aeródromo, localidad o designador OACI:
METAR del 20-07-2018 a las 14:00 UTC
METAR SCRD 201400Z 15008KT CAVOK 09/M00 Q1027
Viento: dirección 150 grados, velocidad 8 nudos
Visibilidad: 10 km o más,
    sin nubes bajo los 5.000 pies o bajo del MSA (Mínimo de Seguridad del Aeródromo),
    sin cumulonimbus, y sin fenómenos de tiempo significativo en el aeródromo o alrededores
Temperatura: 9 °C
Rocío: -0 °C
Humedad_relativa: 53%
Presión: 1027 hPa
METAR del 20-07-2018 a las 13:00 UTC
METAR SCRD 201300Z 13007KT CAVOK 05/M01 Q1027
Viento: dirección 130 grados, velocidad 7 nudos
Visibilidad: 10 km o más,
    sin nubes bajo los 5.000 pies o bajo del MSA (Mínimo de Seguridad del Aeródromo),
    sin cumulonimbus, y sin fenómenos de tiempo significativo en el aeródromo o alrededores
Temperatura: 5 °C
Rocío: -1 °C
Humedad_relativa: 65%
Presión: 1027 hPa
METAR del 19-07-2018 a las 22:00 UTC
METAR SCRD 192200Z 16008KT CAVOK 07/02 Q1025
Viento: dirección 160 grados, velocidad 8 nudos
Visibilidad: 10 km o más,
    sin nubes bajo los 5.000 pies o bajo del MSA (Mínimo de Seguridad del Aeródromo),
    sin cumulonimbus, y sin fenómenos de tiempo significativo en el aeródromo o alrededores
Temperatura: 7 °C
Rocío: 2 °C
Humedad_relativa: 70%
Presión: 1025 hPa
METAR del 19-07-2018 a las 22:00 UTC
METAR SCRD 192200Z 16008KT CAVOK 07/02 Q1025
Viento: dirección 160 grados, velocidad 8 nudos
Visibilidad: 10 km o más,
    sin nubes bajo los 5.000 pies o bajo del MSA (Mínimo de Seguridad del Aeródromo),
    sin cumulonimbus, y sin fenómenos de tiempo significativo en el aeródromo o alrededores
Temperatura: 7 °C
Rocío: 2 °C
Humedad_relativa: 70%
Presión: 1025 hPa
METAR del 19-07-2018 a las 21:00 UTC
METAR SCRD 192100Z 21010KT CAVOK 09/M01 Q1025
Viento: dirección 210 grados, velocidad 10 nudos
Visibilidad: 10 km o más,
    sin nubes bajo los 5.000 pies o bajo del MSA (Mínimo de Seguridad del Aeródromo),
    sin cumulonimbus, y sin fenómenos de tiempo significativo en el aeródromo o alrededores
Temperatura: 9 °C
Rocío: -1 °C
Humedad_relativa: 50%
Presión: 1025 hPa
METAR del 19-07-2018 a las 21:00 UTC
METAR SCRD 192100Z 21010KT CAVOK 09/M01 Q1025
Viento: dirección 210 grados, velocidad 10 nudos
Visibilidad: 10 km o más,
    sin nubes bajo los 5.000 pies o bajo del MSA (Mínimo de Seguridad del Aeródromo),
    sin cumulonimbus, y sin fenómenos de tiempo significativo en el aeródromo o alrededores
Temperatura: 9 °C
Rocío: -1 °C
Humedad_relativa: 50%
Presión: 1025 hPa
METAR del 19-07-2018 a las 21:00 UTC
METAR SCRD 192100Z 21010KT CAVOK 09/M01 Q1025
Viento: dirección 210 grados, velocidad 10 nudos
Visibilidad: 10 km o más,
    sin nubes bajo los 5.000 pies o bajo del MSA (Mínimo de Seguridad del Aeródromo),
    sin cumulonimbus, y sin fenómenos de tiempo significativo en el aeródromo o alrededores
Temperatura: 9 °C
Rocío: -1 °C
Humedad_relativa: 50%
Presión: 1025 hPa
METAR del 19-07-2018 a las 21:00 UTC
METAR SCRD 192100Z 21010KT CAVOK 09/M01 Q1025
Viento: dirección 210 grados, velocidad 10 nudos
Visibilidad: 10 km o más,
    sin nubes bajo los 5.000 pies o bajo del MSA (Mínimo de Seguridad del Aeródromo),
    sin cumulonimbus, y sin fenómenos de tiempo significativo en el aeródromo o alrededores
Temperatura: 9 °C
Rocío: -1 °C
Humedad_relativa: 50%
Presión: 1025 hPa
METAR del 19-07-2018 a las 20:00 UTC
METAR SCRD 192000Z 20010KT CAVOK 10/M03 Q1024
Viento: dirección 200 grados, velocidad 10 nudos
Visibilidad: 10 km o más,
    sin nubes bajo los 5.000 pies o bajo del MSA (Mínimo de Seguridad del Aeródromo),
    sin cumulonimbus, y sin fenómenos de tiempo significativo en el aeródromo o alrededores
Temperatura: 10 °C
Rocío: -3 °C
Humedad_relativa: 40%
Presión: 1024 hPa
METAR del 19-07-2018 a las 20:00 UTC
METAR SCRD 192000Z 20010KT CAVOK 10/M03 Q1024
Viento: dirección 200 grados, velocidad 10 nudos
Visibilidad: 10 km o más,
    sin nubes bajo los 5.000 pies o bajo del MSA (Mínimo de Seguridad del Aeródromo),
    sin cumulonimbus, y sin fenómenos de tiempo significativo en el aeródromo o alrededores
Temperatura: 10 °C
Rocío: -3 °C
Humedad_relativa: 40%
Presión: 1024 hPa